sensor_id;sensor_type;location;lat;lon;timestamp;P1;durP1;ratioP1;P2;durP2;ratioP2
74791;SDS011;63319;46.046;17.802;2022-09-09T06:12:13;2.30;;;1.20;;
74791;SDS011;63319;46.046;17.802;2022-09-09T06:15:17;3.63;;;1.52;;
74791;SDS011;63319;46.046;17.802;2022-09-09T06:18:24;5.05;;;1.52;;
74791;SDS011;63319;46.046;17.802;2022-09-09T06:21:30;8.48;;;1.65;;
74791;SDS011;63319;46.046;17.802;2022-09-09T06:24:36;9.87;;;1.53;;
74791;SDS011;63319;46.046;17.802;2022-09-09T06:27:41;4.53;;;1.40;;
74791;SDS011;63319;46.046;17.802;2022-09-09T06:30:46;4.78;;;1.67;;
74791;SDS011;63319;46.046;17.802;2022-09-09T06:34:06;2.75;;;1.00;;
74791;SDS011;63319;46.046;17.802;2022-09-09T06:37:14;6.57;;;1.60;;
74791;SDS011;63319;46.046;17.802;2022-09-09T06:40:22;3.07;;;1.10;;
74791;SDS011;63319;46.046;17.802;2022-09-09T06:43:26;4.40;;;1.60;;
74791;SDS011;63319;46.046;17.802;2022-09-09T06:46:31;5.70;;;1.42;;
74791;SDS011;63319;46.046;17.802;2022-09-09T06:49:37;9.00;;;1.50;;
74791;SDS011;63319;46.046;17.802;2022-09-09T06:52:45;7.38;;;1.50;;
74791;SDS011;63319;46.046;17.802;2022-09-09T06:55:51;4.47;;;1.50;;
74791;SDS011;63319;46.046;17.802;2022-09-09T06:58:55;8.50;;;1.55;;
74791;SDS011;63319;46.046;17.802;2022-09-09T07:02:05;7.70;;;1.30;;
74791;SDS011;63319;46.046;17.802;2022-09-09T07:05:09;7.07;;;1.25;;
74791;SDS011;63319;46.046;17.802;2022-09-09T07:08:15;6.78;;;1.52;;
74791;SDS011;63319;46.046;17.802;2022-09-09T07:11:21;2.97;;;1.33;;
74791;SDS011;63319;46.046;17.802;2022-09-09T07:14:26;10.88;;;1.60;;
74791;SDS011;63319;46.046;17.802;2022-09-09T07:17:34;5.32;;;1.30;;
74791;SDS011;63319;46.046;17.802;2022-09-09T07:20:39;10.32;;;1.38;;
74791;SDS011;63319;46.046;17.802;2022-09-09T07:23:42;10.70;;;1.38;;
74791;SDS011;63319;46.046;17.802;2022-09-09T07:26:48;5.97;;;1.47;;
74791;SDS011;63319;46.046;17.802;2022-09-09T07:29:52;5.18;;;1.20;;
74791;SDS011;63319;46.046;17.802;2022-09-09T07:32:57;4.50;;;1.05;;
74791;SDS011;63319;46.046;17.802;2022-09-09T07:39:15;3.33;;;1.50;;
74791;SDS011;63319;46.046;17.802;2022-09-09T07:42:25;6.87;;;1.60;;
74791;SDS011;63319;46.046;17.802;2022-09-09T07:45:28;2.85;;;1.30;;
74791;SDS011;63319;46.046;17.802;2022-09-09T07:48:31;6.03;;;1.52;;
74791;SDS011;63319;46.046;17.802;2022-09-09T07:51:35;6.97;;;1.45;;
74791;SDS011;63319;46.046;17.802;2022-09-09T07:54:44;7.72;;;1.63;;
74791;SDS011;63319;46.046;17.802;2022-09-09T07:57:49;7.47;;;1.63;;
74791;SDS011;63319;46.046;17.802;2022-09-09T08:00:53;3.80;;;1.50;;
74791;SDS011;63319;46.046;17.802;2022-09-09T08:04:01;5.85;;;1.60;;
74791;SDS011;63319;46.046;17.802;2022-09-09T08:07:09;6.80;;;1.38;;
74791;SDS011;63319;46.046;17.802;2022-09-09T08:10:32;6.72;;;1.80;;
74791;SDS011;63319;46.046;17.802;2022-09-09T08:13:36;3.83;;;1.23;;
74791;SDS011;63319;46.046;17.802;2022-09-09T08:16:48;6.50;;;1.77;;
74791;SDS011;63319;46.046;17.802;2022-09-09T08:19:56;3.92;;;1.35;;
74791;SDS011;63319;46.046;17.802;2022-09-09T08:23:02;3.80;;;1.00;;
74791;SDS011;63319;46.046;17.802;2022-09-09T08:26:12;5.13;;;1.30;;
74791;SDS011;63319;46.046;17.802;2022-09-09T08:29:18;3.20;;;1.00;;
74791;SDS011;63319;46.046;17.802;2022-09-09T08:32:22;5.22;;;0.80;;
74791;SDS011;63319;46.046;17.802;2022-09-09T08:35:26;4.35;;;1.17;;
74791;SDS011;63319;46.046;17.802;2022-09-09T08:38:37;3.53;;;1.00;;
74791;SDS011;63319;46.046;17.802;2022-09-09T08:45:34;3.77;;;1.17;;
74791;SDS011;63319;46.046;17.802;2022-09-09T08:48:52;8.57;;;1.02;;
74791;SDS011;63319;46.046;17.802;2022-09-09T08:51:58;3.25;;;0.85;;
74791;SDS011;63319;46.046;17.802;2022-09-09T08:55:05;4.07;;;1.10;;
74791;SDS011;63319;46.046;17.802;2022-09-09T08:58:33;11.55;;;2.15;;
74791;SDS011;63319;46.046;17.802;2022-09-09T09:01:43;4.43;;;1.20;;
74791;SDS011;63319;46.046;17.802;2022-09-09T09:11:37;4.22;;;0.90;;
74791;SDS011;63319;46.046;17.802;2022-09-09T09:14:41;3.60;;;0.95;;
74791;SDS011;63319;46.046;17.802;2022-09-09T09:17:48;2.97;;;0.90;;
74791;SDS011;63319;46.046;17.802;2022-09-09T09:20:54;2.97;;;0.80;;
74791;SDS011;63319;46.046;17.802;2022-09-09T09:24:03;3.33;;;0.70;;
74791;SDS011;63319;46.046;17.802;2022-09-09T09:27:35;3.20;;;0.80;;
74791;SDS011;63319;46.046;17.802;2022-09-09T09:31:16;3.90;;;0.95;;
74791;SDS011;63319;46.046;17.802;2022-09-09T09:34:21;4.17;;;1.40;;
74791;SDS011;63319;46.046;17.802;2022-09-09T09:37:31;1.85;;;0.63;;
74791;SDS011;63319;46.046;17.802;2022-09-09T09:40:47;4.40;;;1.67;;
74791;SDS011;63319;46.046;17.802;2022-09-09T09:43:53;2.78;;;0.80;;
74791;SDS011;63319;46.046;17.802;2022-09-09T09:47:05;6.40;;;1.15;;
74791;SDS011;63319;46.046;17.802;2022-09-09T09:50:16;7.57;;;0.90;;
74791;SDS011;63319;46.046;17.802;2022-09-09T09:53:25;3.33;;;0.80;;
74791;SDS011;63319;46.046;17.802;2022-09-09T09:56:36;11.57;;;1.30;;
74791;SDS011;63319;46.046;17.802;2022-09-09T09:59:42;7.45;;;0.95;;
74791;SDS011;63319;46.046;17.802;2022-09-09T10:02:59;6.65;;;0.88;;
74791;SDS011;63319;46.046;17.802;2022-09-09T10:06:06;6.10;;;0.60;;
74791;SDS011;63319;46.046;17.802;2022-09-09T10:09:23;1.45;;;0.63;;
74791;SDS011;63319;46.046;17.802;2022-09-09T10:15:52;1.98;;;0.60;;
74791;SDS011;63319;46.046;17.802;2022-09-09T10:19:26;3.08;;;0.70;;
74791;SDS011;63319;46.046;17.802;2022-09-09T10:22:34;1.23;;;0.40;;
74791;SDS011;63319;46.046;17.802;2022-09-09T10:26:21;4.95;;;0.68;;
74791;SDS011;63319;46.046;17.802;2022-09-09T10:38:46;9.40;;;0.93;;
74791;SDS011;63319;46.046;17.802;2022-09-09T10:41:54;7.55;;;1.73;;
74791;SDS011;63319;46.046;17.802;2022-09-09T10:48:28;9.02;;;1.10;;
74791;SDS011;63319;46.046;17.802;2022-09-09T10:51:46;4.03;;;1.35;;
74791;SDS011;63319;46.046;17.802;2022-09-09T10:57:58;4.60;;;0.80;;
74791;SDS011;63319;46.046;17.802;2022-09-09T11:01:10;4.63;;;0.75;;
74791;SDS011;63319;46.046;17.802;2022-09-09T11:07:49;4.90;;;1.10;;
74791;SDS011;63319;46.046;17.802;2022-09-09T11:11:11;5.60;;;0.90;;
74791;SDS011;63319;46.046;17.802;2022-09-09T11:17:30;4.18;;;0.80;;
74791;SDS011;63319;46.046;17.802;2022-09-09T11:20:39;2.78;;;0.68;;
74791;SDS011;63319;46.046;17.802;2022-09-09T11:23:43;6.13;;;0.95;;
74791;SDS011;63319;46.046;17.802;2022-09-09T11:27:02;5.40;;;0.93;;
74791;SDS011;63319;46.046;17.802;2022-09-09T11:30:15;4.20;;;0.63;;
74791;SDS011;63319;46.046;17.802;2022-09-09T11:37:12;1.85;;;1.10;;
74791;SDS011;63319;46.046;17.802;2022-09-09T11:40:34;9.25;;;0.98;;
74791;SDS011;63319;46.046;17.802;2022-09-09T11:43:47;1.70;;;0.63;;
74791;SDS011;63319;46.046;17.802;2022-09-09T11:46:53;2.58;;;0.80;;
74791;SDS011;63319;46.046;17.802;2022-09-09T11:53:21;2.13;;;0.70;;
74791;SDS011;63319;46.046;17.802;2022-09-09T11:59:30;2.40;;;0.73;;
74791;SDS011;63319;46.046;17.802;2022-09-09T12:02:34;3.53;;;0.80;;
74791;SDS011;63319;46.046;17.802;2022-09-09T12:05:42;3.10;;;0.55;;
74791;SDS011;63319;46.046;17.802;2022-09-09T12:08:50;2.40;;;0.80;;
74791;SDS011;63319;46.046;17.802;2022-09-09T12:18:25;3.42;;;0.80;;
74791;SDS011;63319;46.046;17.802;2022-09-09T12:21:39;4.50;;;0.88;;
74791;SDS011;63319;46.046;17.802;2022-09-09T12:24:48;2.25;;;0.80;;
74791;SDS011;63319;46.046;17.802;2022-09-09T12:28:15;2.28;;;0.77;;
74791;SDS011;63319;46.046;17.802;2022-09-09T12:32:06;4.30;;;0.87;;
74791;SDS011;63319;46.046;17.802;2022-09-09T12:38:36;2.88;;;1.10;;
74791;SDS011;63319;46.046;17.802;2022-09-09T12:41:41;4.63;;;1.20;;
74791;SDS011;63319;46.046;17.802;2022-09-09T12:44:57;4.25;;;1.10;;
74791;SDS011;63319;46.046;17.802;2022-09-09T12:48:10;4.70;;;1.00;;
74791;SDS011;63319;46.046;17.802;2022-09-09T12:51:23;3.42;;;0.85;;
74791;SDS011;63319;46.046;17.802;2022-09-09T12:54:29;6.50;;;1.20;;
74791;SDS011;63319;46.046;17.802;2022-09-09T12:57:35;4.88;;;1.10;;
74791;SDS011;63319;46.046;17.802;2022-09-09T13:00:48;5.70;;;1.00;;
74791;SDS011;63319;46.046;17.802;2022-09-09T13:03:53;6.30;;;1.10;;
74791;SDS011;63319;46.046;17.802;2022-09-09T13:07:06;8.77;;;1.80;;
74791;SDS011;63319;46.046;17.802;2022-09-09T13:10:13;10.43;;;1.35;;
74791;SDS011;63319;46.046;17.802;2022-09-09T13:13:38;3.00;;;1.13;;
74791;SDS011;63319;46.046;17.802;2022-09-09T13:16:43;3.15;;;0.98;;
74791;SDS011;63319;46.046;17.802;2022-09-09T13:19:46;4.83;;;0.90;;
74791;SDS011;63319;46.046;17.802;2022-09-09T13:22:49;8.75;;;1.00;;
74791;SDS011;63319;46.046;17.802;2022-09-09T13:25:58;2.95;;;0.80;;
74791;SDS011;63319;46.046;17.802;2022-09-09T13:29:18;3.35;;;0.70;;
74791;SDS011;63319;46.046;17.802;2022-09-09T13:32:22;4.25;;;1.08;;
74791;SDS011;63319;46.046;17.802;2022-09-09T13:35:26;3.60;;;1.00;;
74791;SDS011;63319;46.046;17.802;2022-09-09T13:38:31;4.05;;;1.10;;
74791;SDS011;63319;46.046;17.802;2022-09-09T13:41:44;4.40;;;1.10;;
74791;SDS011;63319;46.046;17.802;2022-09-09T13:44:49;4.30;;;0.80;;
74791;SDS011;63319;46.046;17.802;2022-09-09T13:47:52;4.85;;;1.02;;
74791;SDS011;63319;46.046;17.802;2022-09-09T13:51:02;2.10;;;0.90;;
74791;SDS011;63319;46.046;17.802;2022-09-09T13:54:09;4.60;;;1.08;;
74791;SDS011;63319;46.046;17.802;2022-09-09T13:57:15;3.67;;;1.10;;
74791;SDS011;63319;46.046;17.802;2022-09-09T14:00:21;3.28;;;0.90;;
74791;SDS011;63319;46.046;17.802;2022-09-09T14:03:25;3.53;;;0.98;;
74791;SDS011;63319;46.046;17.802;2022-09-09T14:06:33;6.07;;;0.93;;
74791;SDS011;63319;46.046;17.802;2022-09-09T14:09:39;2.40;;;0.73;;
74791;SDS011;63319;46.046;17.802;2022-09-09T14:12:43;3.25;;;1.00;;
74791;SDS011;63319;46.046;17.802;2022-09-09T14:15:45;3.90;;;0.70;;
74791;SDS011;63319;46.046;17.802;2022-09-09T14:18:48;3.13;;;0.70;;
74791;SDS011;63319;46.046;17.802;2022-09-09T14:21:51;2.97;;;0.70;;
74791;SDS011;63319;46.046;17.802;2022-09-09T14:24:54;1.75;;;0.65;;
74791;SDS011;63319;46.046;17.802;2022-09-09T14:27:57;4.80;;;1.00;;
74791;SDS011;63319;46.046;17.802;2022-09-09T14:31:00;4.60;;;0.90;;
74791;SDS011;63319;46.046;17.802;2022-09-09T14:34:04;3.83;;;0.98;;
74791;SDS011;63319;46.046;17.802;2022-09-09T14:37:08;1.77;;;0.70;;
74791;SDS011;63319;46.046;17.802;2022-09-09T14:40:11;4.22;;;0.95;;
74791;SDS011;63319;46.046;17.802;2022-09-09T14:43:14;3.80;;;1.05;;
74791;SDS011;63319;46.046;17.802;2022-09-09T14:46:18;3.17;;;0.90;;
74791;SDS011;63319;46.046;17.802;2022-09-09T14:49:22;3.90;;;0.93;;
74791;SDS011;63319;46.046;17.802;2022-09-09T14:52:25;3.03;;;0.90;;
74791;SDS011;63319;46.046;17.802;2022-09-09T14:55:28;3.95;;;0.90;;
74791;SDS011;63319;46.046;17.802;2022-09-09T14:58:31;3.42;;;0.68;;
74791;SDS011;63319;46.046;17.802;2022-09-09T15:01:34;2.28;;;0.80;;
74791;SDS011;63319;46.046;17.802;2022-09-09T15:04:37;2.25;;;1.00;;
74791;SDS011;63319;46.046;17.802;2022-09-09T15:07:40;2.63;;;0.73;;
74791;SDS011;63319;46.046;17.802;2022-09-09T15:10:43;2.50;;;0.60;;
74791;SDS011;63319;46.046;17.802;2022-09-09T15:13:47;3.78;;;1.13;;
74791;SDS011;63319;46.046;17.802;2022-09-09T15:16:55;3.38;;;0.93;;
74791;SDS011;63319;46.046;17.802;2022-09-09T15:19:58;2.80;;;0.80;;
74791;SDS011;63319;46.046;17.802;2022-09-09T15:23:01;2.13;;;0.77;;
74791;SDS011;63319;46.046;17.802;2022-09-09T15:26:04;5.10;;;0.80;;
74791;SDS011;63319;46.046;17.802;2022-09-09T15:29:08;3.53;;;0.80;;
74791;SDS011;63319;46.046;17.802;2022-09-09T15:32:11;3.50;;;1.10;;
74791;SDS011;63319;46.046;17.802;2022-09-09T15:35:14;2.38;;;0.75;;
74791;SDS011;63319;46.046;17.802;2022-09-09T15:38:17;2.83;;;1.07;;
74791;SDS011;63319;46.046;17.802;2022-09-09T15:41:22;2.13;;;0.55;;
74791;SDS011;63319;46.046;17.802;2022-09-09T15:44:25;3.50;;;0.93;;
74791;SDS011;63319;46.046;17.802;2022-09-09T15:47:27;2.10;;;0.60;;
74791;SDS011;63319;46.046;17.802;2022-09-09T15:50:30;2.42;;;0.77;;
74791;SDS011;63319;46.046;17.802;2022-09-09T15:53:34;2.70;;;0.77;;
74791;SDS011;63319;46.046;17.802;2022-09-09T15:56:37;2.17;;;0.80;;
74791;SDS011;63319;46.046;17.802;2022-09-09T15:59:40;2.75;;;1.05;;
74791;SDS011;63319;46.046;17.802;2022-09-09T16:02:43;3.03;;;0.90;;
74791;SDS011;63319;46.046;17.802;2022-09-09T16:05:50;2.42;;;0.65;;
74791;SDS011;63319;46.046;17.802;2022-09-09T16:08:54;2.50;;;0.97;;
74791;SDS011;63319;46.046;17.802;2022-09-09T16:11:58;3.45;;;0.90;;
74791;SDS011;63319;46.046;17.802;2022-09-09T16:15:03;2.15;;;0.85;;
74791;SDS011;63319;46.046;17.802;2022-09-09T16:18:06;1.90;;;0.60;;
74791;SDS011;63319;46.046;17.802;2022-09-09T16:21:12;2.47;;;0.85;;
74791;SDS011;63319;46.046;17.802;2022-09-09T16:24:18;2.93;;;0.97;;
74791;SDS011;63319;46.046;17.802;2022-09-09T16:27:22;2.35;;;0.80;;
74791;SDS011;63319;46.046;17.802;2022-09-09T16:30:25;2.03;;;0.80;;
74791;SDS011;63319;46.046;17.802;2022-09-09T16:33:28;2.50;;;0.90;;
74791;SDS011;63319;46.046;17.802;2022-09-09T16:36:33;1.73;;;0.70;;
74791;SDS011;63319;46.046;17.802;2022-09-09T16:39:38;2.23;;;0.87;;
74791;SDS011;63319;46.046;17.802;2022-09-09T16:42:40;2.42;;;1.00;;
74791;SDS011;63319;46.046;17.802;2022-09-09T16:45:44;2.22;;;0.65;;
74791;SDS011;63319;46.046;17.802;2022-09-09T16:48:47;2.30;;;0.60;;
74791;SDS011;63319;46.046;17.802;2022-09-09T16:51:51;2.97;;;0.80;;
74791;SDS011;63319;46.046;17.802;2022-09-09T16:54:57;1.47;;;0.60;;
74791;SDS011;63319;46.046;17.802;2022-09-09T16:58:00;1.98;;;0.68;;
74791;SDS011;63319;46.046;17.802;2022-09-09T17:01:03;2.10;;;0.73;;
74791;SDS011;63319;46.046;17.802;2022-09-09T17:04:09;3.08;;;0.60;;
74791;SDS011;63319;46.046;17.802;2022-09-09T17:07:16;2.92;;;1.00;;
74791;SDS011;63319;46.046;17.802;2022-09-09T17:10:21;3.03;;;0.60;;
74791;SDS011;63319;46.046;17.802;2022-09-09T17:13:24;1.88;;;0.65;;
74791;SDS011;63319;46.046;17.802;2022-09-09T17:16:29;2.00;;;0.90;;
74791;SDS011;63319;46.046;17.802;2022-09-09T17:19:33;3.67;;;0.80;;
74791;SDS011;63319;46.046;17.802;2022-09-09T17:22:37;2.75;;;0.82;;
74791;SDS011;63319;46.046;17.802;2022-09-09T17:25:40;1.60;;;0.73;;
74791;SDS011;63319;46.046;17.802;2022-09-09T17:28:44;2.08;;;0.82;;
74791;SDS011;63319;46.046;17.802;2022-09-09T17:31:47;2.40;;;0.70;;
74791;SDS011;63319;46.046;17.802;2022-09-09T17:34:50;2.33;;;0.80;;
74791;SDS011;63319;46.046;17.802;2022-09-09T17:37:54;2.35;;;0.85;;
74791;SDS011;63319;46.046;17.802;2022-09-09T17:41:06;1.87;;;0.80;;
74791;SDS011;63319;46.046;17.802;2022-09-09T17:44:11;3.28;;;0.70;;
74791;SDS011;63319;46.046;17.802;2022-09-09T17:47:14;2.10;;;0.80;;
74791;SDS011;63319;46.046;17.802;2022-09-09T17:50:16;1.83;;;0.60;;
74791;SDS011;63319;46.046;17.802;2022-09-09T17:53:22;2.30;;;0.88;;
74791;SDS011;63319;46.046;17.802;2022-09-09T17:56:25;2.27;;;0.83;;
74791;SDS011;63319;46.046;17.802;2022-09-09T17:59:32;1.92;;;0.70;;
74791;SDS011;63319;46.046;17.802;2022-09-09T18:02:35;2.92;;;0.70;;
74791;SDS011;63319;46.046;17.802;2022-09-09T18:05:40;1.85;;;0.60;;
74791;SDS011;63319;46.046;17.802;2022-09-09T18:08:50;2.15;;;0.77;;
74791;SDS011;63319;46.046;17.802;2022-09-09T18:11:55;1.47;;;0.60;;
74791;SDS011;63319;46.046;17.802;2022-09-09T18:15:00;1.88;;;0.70;;
74791;SDS011;63319;46.046;17.802;2022-09-09T18:18:05;2.08;;;0.70;;
74791;SDS011;63319;46.046;17.802;2022-09-09T18:21:09;1.52;;;0.60;;
74791;SDS011;63319;46.046;17.802;2022-09-09T18:24:13;2.40;;;0.82;;
74791;SDS011;63319;46.046;17.802;2022-09-09T18:27:19;1.63;;;0.80;;
74791;SDS011;63319;46.046;17.802;2022-09-09T18:30:23;1.33;;;0.77;;
74791;SDS011;63319;46.046;17.802;2022-09-09T18:33:27;1.30;;;0.77;;
74791;SDS011;63319;46.046;17.802;2022-09-09T18:36:32;2.83;;;0.80;;
74791;SDS011;63319;46.046;17.802;2022-09-09T18:39:38;1.75;;;0.70;;
74791;SDS011;63319;46.046;17.802;2022-09-09T18:42:41;1.03;;;0.60;;
74791;SDS011;63319;46.046;17.802;2022-09-09T18:45:44;1.75;;;0.68;;
74791;SDS011;63319;46.046;17.802;2022-09-09T18:48:48;1.38;;;0.70;;
74791;SDS011;63319;46.046;17.802;2022-09-09T18:51:52;1.27;;;0.65;;
74791;SDS011;63319;46.046;17.802;2022-09-09T18:54:55;2.38;;;0.75;;
74791;SDS011;63319;46.046;17.802;2022-09-09T18:57:58;2.13;;;0.53;;
74791;SDS011;63319;46.046;17.802;2022-09-09T19:01:02;2.45;;;0.77;;
74791;SDS011;63319;46.046;17.802;2022-09-09T19:04:08;1.73;;;0.63;;
74791;SDS011;63319;46.046;17.802;2022-09-09T19:07:11;2.17;;;0.82;;
74791;SDS011;63319;46.046;17.802;2022-09-09T19:10:14;3.70;;;0.80;;
74791;SDS011;63319;46.046;17.802;2022-09-09T19:13:18;2.13;;;0.77;;
74791;SDS011;63319;46.046;17.802;2022-09-09T19:16:21;1.25;;;0.60;;
74791;SDS011;63319;46.046;17.802;2022-09-09T19:19:27;3.08;;;0.98;;
74791;SDS011;63319;46.046;17.802;2022-09-09T19:22:32;1.45;;;0.70;;
74791;SDS011;63319;46.046;17.802;2022-09-09T19:25:36;2.03;;;0.82;;
74791;SDS011;63319;46.046;17.802;2022-09-09T19:28:39;1.30;;;0.60;;
74791;SDS011;63319;46.046;17.802;2022-09-09T19:31:43;1.85;;;0.80;;
74791;SDS011;63319;46.046;17.802;2022-09-09T19:35:07;1.55;;;0.80;;
74791;SDS011;63319;46.046;17.802;2022-09-09T19:38:12;1.80;;;0.60;;
74791;SDS011;63319;46.046;17.802;2022-09-09T19:41:17;1.58;;;0.88;;
74791;SDS011;63319;46.046;17.802;2022-09-09T19:44:21;1.50;;;0.63;;
74791;SDS011;63319;46.046;17.802;2022-09-09T19:47:24;2.30;;;0.80;;
74791;SDS011;63319;46.046;17.802;2022-09-09T19:50:28;1.90;;;0.70;;
74791;SDS011;63319;46.046;17.802;2022-09-09T19:53:31;1.33;;;0.65;;
74791;SDS011;63319;46.046;17.802;2022-09-09T19:56:38;3.22;;;1.00;;
74791;SDS011;63319;46.046;17.802;2022-09-09T19:59:42;2.73;;;0.93;;
74791;SDS011;63319;46.046;17.802;2022-09-09T20:03:05;1.50;;;0.60;;
74791;SDS011;63319;46.046;17.802;2022-09-09T20:06:21;1.67;;;0.85;;
74791;SDS011;63319;46.046;17.802;2022-09-09T20:09:28;2.47;;;0.80;;
74791;SDS011;63319;46.046;17.802;2022-09-09T20:12:31;1.92;;;0.70;;
74791;SDS011;63319;46.046;17.802;2022-09-09T20:15:34;1.73;;;0.70;;
74791;SDS011;63319;46.046;17.802;2022-09-09T20:18:39;2.05;;;0.70;;
74791;SDS011;63319;46.046;17.802;2022-09-09T20:21:45;1.75;;;0.77;;
74791;SDS011;63319;46.046;17.802;2022-09-09T20:24:51;1.35;;;0.60;;
74791;SDS011;63319;46.046;17.802;2022-09-09T20:27:54;1.95;;;0.63;;
74791;SDS011;63319;46.046;17.802;2022-09-09T20:31:02;1.73;;;0.60;;
74791;SDS011;63319;46.046;17.802;2022-09-09T20:34:10;1.45;;;0.80;;
74791;SDS011;63319;46.046;17.802;2022-09-09T20:37:15;1.98;;;0.80;;
74791;SDS011;63319;46.046;17.802;2022-09-09T20:40:18;2.53;;;0.80;;
74791;SDS011;63319;46.046;17.802;2022-09-09T20:43:21;1.52;;;0.63;;
74791;SDS011;63319;46.046;17.802;2022-09-09T20:46:25;1.50;;;0.73;;
74791;SDS011;63319;46.046;17.802;2022-09-09T20:49:31;1.58;;;0.50;;
74791;SDS011;63319;46.046;17.802;2022-09-09T20:52:36;2.17;;;0.80;;
74791;SDS011;63319;46.046;17.802;2022-09-09T20:55:39;1.23;;;0.70;;
74791;SDS011;63319;46.046;17.802;2022-09-09T20:58:42;1.67;;;0.60;;
74791;SDS011;63319;46.046;17.802;2022-09-09T21:01:46;1.50;;;0.70;;
74791;SDS011;63319;46.046;17.802;2022-09-09T21:04:50;1.23;;;0.70;;
74791;SDS011;63319;46.046;17.802;2022-09-09T21:07:53;2.10;;;0.80;;
74791;SDS011;63319;46.046;17.802;2022-09-09T21:10:56;1.85;;;0.70;;
74791;SDS011;63319;46.046;17.802;2022-09-09T21:13:59;2.35;;;0.80;;
74791;SDS011;63319;46.046;17.802;2022-09-09T21:17:03;1.03;;;0.50;;
74791;SDS011;63319;46.046;17.802;2022-09-09T21:20:06;1.15;;;0.50;;
74791;SDS011;63319;46.046;17.802;2022-09-09T21:23:11;2.30;;;0.88;;
74791;SDS011;63319;46.046;17.802;2022-09-09T21:26:15;1.65;;;0.60;;
74791;SDS011;63319;46.046;17.802;2022-09-09T21:29:21;1.27;;;0.60;;
74791;SDS011;63319;46.046;17.802;2022-09-09T21:32:25;1.40;;;0.70;;
74791;SDS011;63319;46.046;17.802;2022-09-09T21:35:29;2.38;;;0.80;;
74791;SDS011;63319;46.046;17.802;2022-09-09T21:38:36;1.65;;;0.75;;
74791;SDS011;63319;46.046;17.802;2022-09-09T21:41:41;2.00;;;0.70;;
74791;SDS011;63319;46.046;17.802;2022-09-09T21:44:44;1.00;;;0.50;;
74791;SDS011;63319;46.046;17.802;2022-09-09T21:47:47;1.13;;;0.50;;
74791;SDS011;63319;46.046;17.802;2022-09-09T21:50:51;1.25;;;0.60;;
74791;SDS011;63319;46.046;17.802;2022-09-09T21:53:55;2.15;;;0.70;;
74791;SDS011;63319;46.046;17.802;2022-09-09T21:56:58;1.75;;;0.82;;
74791;SDS011;63319;46.046;17.802;2022-09-09T22:00:03;2.85;;;0.50;;
74791;SDS011;63319;46.046;17.802;2022-09-09T22:03:14;2.37;;;0.70;;
74791;SDS011;63319;46.046;17.802;2022-09-09T22:06:18;1.60;;;0.80;;
74791;SDS011;63319;46.046;17.802;2022-09-09T22:09:21;1.10;;;0.60;;
74791;SDS011;63319;46.046;17.802;2022-09-09T22:12:24;1.50;;;0.85;;
74791;SDS011;63319;46.046;17.802;2022-09-09T22:15:27;2.50;;;0.90;;
74791;SDS011;63319;46.046;17.802;2022-09-09T22:18:32;1.20;;;0.60;;
74791;SDS011;63319;46.046;17.802;2022-09-09T22:21:36;1.67;;;0.60;;
74791;SDS011;63319;46.046;17.802;2022-09-09T22:24:39;1.13;;;0.80;;
74791;SDS011;63319;46.046;17.802;2022-09-09T22:27:42;1.30;;;0.80;;
74791;SDS011;63319;46.046;17.802;2022-09-09T22:30:44;1.33;;;0.70;;
74791;SDS011;63319;46.046;17.802;2022-09-09T22:33:48;1.63;;;0.63;;
74791;SDS011;63319;46.046;17.802;2022-09-09T22:36:53;0.98;;;0.50;;
74791;SDS011;63319;46.046;17.802;2022-09-09T22:39:56;1.23;;;0.60;;
74791;SDS011;63319;46.046;17.802;2022-09-09T22:42:59;3.45;;;0.65;;
74791;SDS011;63319;46.046;17.802;2022-09-09T22:46:02;1.60;;;0.80;;
74791;SDS011;63319;46.046;17.802;2022-09-09T22:49:06;1.30;;;0.57;;
74791;SDS011;63319;46.046;17.802;2022-09-09T22:52:09;1.73;;;0.90;;
74791;SDS011;63319;46.046;17.802;2022-09-09T22:55:12;3.45;;;0.70;;
74791;SDS011;63319;46.046;17.802;2022-09-09T22:58:15;1.27;;;0.60;;
74791;SDS011;63319;46.046;17.802;2022-09-09T23:01:18;1.58;;;0.80;;
74791;SDS011;63319;46.046;17.802;2022-09-09T23:04:22;2.00;;;0.60;;
74791;SDS011;63319;46.046;17.802;2022-09-09T23:07:26;2.13;;;0.90;;
74791;SDS011;63319;46.046;17.802;2022-09-09T23:10:29;1.95;;;0.70;;
74791;SDS011;63319;46.046;17.802;2022-09-09T23:13:35;1.27;;;0.63;;
74791;SDS011;63319;46.046;17.802;2022-09-09T23:16:42;1.55;;;0.60;;
74791;SDS011;63319;46.046;17.802;2022-09-09T23:19:47;1.27;;;0.50;;
74791;SDS011;63319;46.046;17.802;2022-09-09T23:22:58;2.40;;;0.70;;
74791;SDS011;63319;46.046;17.802;2022-09-09T23:26:03;1.60;;;0.55;;
74791;SDS011;63319;46.046;17.802;2022-09-09T23:29:08;1.33;;;0.40;;
74791;SDS011;63319;46.046;17.802;2022-09-09T23:32:15;1.27;;;0.80;;
74791;SDS011;63319;46.046;17.802;2022-09-09T23:35:19;1.60;;;0.73;;
74791;SDS011;63319;46.046;17.802;2022-09-09T23:38:22;1.58;;;0.50;;
74791;SDS011;63319;46.046;17.802;2022-09-09T23:41:25;1.85;;;0.85;;
74791;SDS011;63319;46.046;17.802;2022-09-09T23:44:29;1.42;;;0.60;;
74791;SDS011;63319;46.046;17.802;2022-09-09T23:47:32;1.23;;;0.57;;
74791;SDS011;63319;46.046;17.802;2022-09-09T23:50:35;1.77;;;0.80;;
74791;SDS011;63319;46.046;17.802;2022-09-09T23:53:39;1.52;;;0.63;;
74791;SDS011;63319;46.046;17.802;2022-09-09T23:56:42;1.20;;;0.45;;
74791;SDS011;63319;46.046;17.802;2022-09-09T23:59:45;1.83;;;0.60;;
